»·PEaware :: CFEGU T03-1L9

CFEGU :: T03-1L9

FLIGHT INFORMATION

Flight Status: Arrived
Operator: Unknown
More flights by this operator :: More flights under this callsign
Pilot: Vincent M. (370)
Aircraft: CESSNA 172 SKYHAWK
(C172)
More flights by this aircraft type
Origin: T03 Tuba City
United States
Destination: 1L9 Parowan
United States
More flights between these airports :: More routes between these airports
Route:
File this flight plan on PilotEdge
Remarks: WUS Challenge
Altitude:
(Current/Filed)
10,500ft
Speed:
(Current/Filed)
110kts
Departed: 29-Jun-20 08:45 PM
Arrived: 29-Jun-20 10:15 PM
Distance/Time
Traveled:
126nm/1:30
Distance/Time
To Go:
Arrived

Flight Plot

Page will automatically refresh every two minutes.


Map Options




Map Legend


Flown Route
Filed Route
Departure Airport
Arrival Airport
Navaid (VOR, NDB)
Fix

Horizontal Profiles

Position Reports

Time Latitude Longitude Heading Altitude Ground
Speed
29-Jun-20 20:33 36.083791 -111.379325 347 4517ft 0kts
29-Jun-20 20:34 36.083791 -111.379325 347 4517ft 0kts
29-Jun-20 20:35 36.083791 -111.379325 347 4517ft 0kts
29-Jun-20 20:36 36.083791 -111.379325 347 4517ft 0kts
29-Jun-20 20:37 36.083791 -111.379325 347 4517ft 0kts
29-Jun-20 20:38 36.083791 -111.379325 347 4517ft 0kts
29-Jun-20 20:39 36.083791 -111.379325 347 4517ft 0kts
29-Jun-20 20:40 36.083791 -111.379325 346 4517ft 0kts
29-Jun-20 20:41 36.083791 -111.379325 347 4517ft 0kts
29-Jun-20 20:42 36.083791 -111.379325 347 4517ft 0kts
29-Jun-20 20:42 36.083791 -111.379325 347 4517ft 0kts
29-Jun-20 20:44 36.083725 -111.380706 167 4517ft 21kts
29-Jun-20 20:45 36.088815 -111.382137 346 4518ft 79kts
29-Jun-20 20:45 36.108841 -111.388679 322 5018ft 90kts
29-Jun-20 20:47 36.135723 -111.402615 324 5781ft 90kts
29-Jun-20 20:47 36.154122 -111.415279 323 6287ft 92kts
29-Jun-20 20:48 36.175883 -111.431326 318 6900ft 91kts
29-Jun-20 20:49 36.196277 -111.448013 316 7585ft 87kts
29-Jun-20 20:50 36.216505 -111.463934 319 8247ft 85kts
29-Jun-20 20:51 36.237063 -111.478833 320 8857ft 85kts
29-Jun-20 20:52 36.257190 -111.492577 320 9491ft 79kts
29-Jun-20 20:53 36.276252 -111.505859 320 10047ft 79kts
29-Jun-20 20:54 36.296470 -111.519783 322 10343ft 91kts
29-Jun-20 20:55 36.318950 -111.534781 324 10342ft 92kts
29-Jun-20 20:56 36.342041 -111.548911 324 10342ft 92kts
29-Jun-20 20:57 36.364157 -111.562387 324 10345ft 94kts
29-Jun-20 20:58 36.387545 -111.576707 324 10341ft 93kts
29-Jun-20 20:59 36.410693 -111.590868 324 10341ft 92kts
29-Jun-20 21:00 36.433830 -111.605011 324 10341ft 92kts
29-Jun-20 21:01 36.456883 -111.619099 324 10341ft 92kts
29-Jun-20 21:02 36.479978 -111.633212 324 10341ft 92kts
29-Jun-20 21:03 36.503009 -111.647280 324 10341ft 92kts
29-Jun-20 21:04 36.526171 -111.661484 324 10346ft 93kts
29-Jun-20 21:05 36.549676 -111.675936 324 10346ft 94kts
29-Jun-20 21:06 36.573381 -111.690502 324 10345ft 95kts
29-Jun-20 21:07 36.597128 -111.705082 324 10345ft 95kts
29-Jun-20 21:08 36.620700 -111.719818 322 10345ft 94kts
29-Jun-20 21:09 36.643188 -111.735231 321 10452ft 85kts
29-Jun-20 21:10 36.664567 -111.749666 321 10502ft 91kts
29-Jun-20 21:11 36.687503 -111.764844 322 10501ft 95kts
29-Jun-20 21:12 36.711018 -111.780300 322 10500ft 96kts
29-Jun-20 21:13 36.734636 -111.795812 322 10500ft 96kts
29-Jun-20 21:14 36.758177 -111.811385 322 10500ft 96kts
29-Jun-20 21:15 36.782069 -111.827586 322 10501ft 98kts
29-Jun-20 21:16 36.806128 -111.843914 322 10499ft 98kts
29-Jun-20 21:17 36.829695 -111.859862 322 10500ft 95kts
29-Jun-20 21:18 36.852938 -111.875559 322 10500ft 94kts
29-Jun-20 21:19 36.876705 -111.890198 325 10500ft 95kts
29-Jun-20 21:20 36.900741 -111.904221 325 10500ft 95kts
29-Jun-20 21:21 36.924805 -111.918252 325 10500ft 95kts
29-Jun-20 21:22 36.948588 -111.932779 323 10501ft 94kts
29-Jun-20 21:23 36.971805 -111.948079 323 10499ft 93kts
29-Jun-20 21:24 36.994319 -111.962928 323 10593ft 94kts
29-Jun-20 21:25 37.018118 -111.978695 323 10590ft 95kts
29-Jun-20 21:26 37.041390 -111.994066 323 10590ft 94kts
29-Jun-20 21:27 37.064480 -112.009289 323 10590ft 93kts
29-Jun-20 21:28 37.087437 -112.024408 323 10590ft 93kts
29-Jun-20 21:29 37.110328 -112.039472 323 10600ft 93kts
29-Jun-20 21:30 37.133269 -112.054572 323 10600ft 93kts
29-Jun-20 21:31 37.156331 -112.069752 323 10600ft 93kts
29-Jun-20 21:32 37.179297 -112.084868 323 10600ft 93kts
29-Jun-20 21:33 37.202391 -112.100070 323 10600ft 93kts
29-Jun-20 21:34 37.225563 -112.115325 323 10600ft 94kts
29-Jun-20 21:35 37.248696 -112.130555 323 10600ft 94kts
29-Jun-20 21:36 37.271155 -112.146548 324 10676ft 95kts
29-Jun-20 21:37 37.294423 -112.164308 324 10598ft 95kts
29-Jun-20 21:38 37.317175 -112.181078 327 10600ft 96kts
29-Jun-20 21:39 37.340852 -112.196906 327 10600ft 96kts
29-Jun-20 21:40 37.364248 -112.211872 327 10671ft 91kts
29-Jun-20 21:41 37.388618 -112.227260 329 10506ft 100kts
29-Jun-20 21:42 37.411830 -112.242028 327 10507ft 89kts
29-Jun-20 21:43 37.434345 -112.255495 329 10511ft 95kts
29-Jun-20 21:44 37.459420 -112.270649 330 10506ft 100kts
29-Jun-20 21:45 37.483644 -112.285391 329 10507ft 94kts
29-Jun-20 21:46 37.507025 -112.299674 329 10508ft 92kts
29-Jun-20 21:47 37.530824 -112.314242 330 10509ft 98kts
29-Jun-20 21:48 37.555833 -112.329403 330 10508ft 100kts
29-Jun-20 21:49 37.581242 -112.344725 330 10507ft 101kts
29-Jun-20 21:50 37.606761 -112.360304 329 10507ft 102kts
29-Jun-20 21:51 37.631845 -112.376948 329 10507ft 102kts
29-Jun-20 21:52 37.656974 -112.393618 329 10506ft 102kts
29-Jun-20 21:53 37.682207 -112.410326 328 10495ft 103kts
29-Jun-20 21:54 37.706987 -112.428180 327 10477ft 100kts
29-Jun-20 21:55 37.730240 -112.445259 326 10458ft 94kts
29-Jun-20 21:56 37.752708 -112.461858 325 10444ft 93kts
29-Jun-20 21:57 37.775618 -112.477494 327 10431ft 95kts
29-Jun-20 21:58 37.799467 -112.491978 328 10420ft 95kts
29-Jun-20 21:59 37.823368 -112.506474 328 10409ft 95kts
29-Jun-20 22:00 37.847992 -112.521475 328 10405ft 101kts
29-Jun-20 22:01 37.873580 -112.537860 327 10394ft 104kts
29-Jun-20 22:02 37.899473 -112.555004 327 10380ft 106kts
29-Jun-20 22:03 37.925527 -112.572214 327 10359ft 103kts
29-Jun-20 22:04 37.949040 -112.589714 317 9928ft 91kts
29-Jun-20 22:05 37.967246 -112.613245 302 9421ft 98kts
29-Jun-20 22:06 37.977185 -112.646524 274 8900ft 107kts
29-Jun-20 22:07 37.968295 -112.683237 241 8294ft 114kts
29-Jun-20 22:08 37.946931 -112.713070 230 7494ft 111kts
29-Jun-20 22:09 37.925026 -112.739577 229 6865ft 104kts
29-Jun-20 22:10 37.904581 -112.757949 216 6694ft 83kts
29-Jun-20 22:11 37.886681 -112.775289 221 6522ft 78kts
29-Jun-20 22:12 37.871692 -112.795341 230 6196ft 76kts
29-Jun-20 22:13 37.860133 -112.815082 231 5934ft 42kts
29-Jun-20 22:14 37.858705 -112.819375 235 5934ft 21kts
29-Jun-20 22:15 37.856401 -112.824072 56 5934ft 12kts
29-Jun-20 22:16 37.856440 -112.824013 46 5934ft 0kts
29-Jun-20 22:17 37.856440 -112.824013 46 5934ft 0kts
29-Jun-20 22:18 37.856440 -112.824013 46 5934ft 0kts
29-Jun-20 22:19 37.856440 -112.824013 46 5934ft 0kts

Navigation Log

Ident Type
Flight plan parsing failed, navigation log unavailable